sensor_id;sensor_type;location;lat;lon;timestamp;P1;durP1;ratioP1;P2;durP2;ratioP2
67130;SDS011;54051;53.464;49.532;2023-07-13T00:02:19;4.13;;;1.75;;
67130;SDS011;54051;53.464;49.532;2023-07-13T00:04:45;4.50;;;1.60;;
67130;SDS011;54051;53.464;49.532;2023-07-13T00:07:12;4.05;;;1.73;;
67130;SDS011;54051;53.464;49.532;2023-07-13T00:09:40;3.80;;;1.50;;
67130;SDS011;54051;53.464;49.532;2023-07-13T00:12:21;3.78;;;1.60;;
67130;SDS011;54051;53.464;49.532;2023-07-13T00:14:49;4.63;;;1.77;;
67130;SDS011;54051;53.464;49.532;2023-07-13T00:17:16;4.00;;;1.67;;
67130;SDS011;54051;53.464;49.532;2023-07-13T00:19:44;5.60;;;1.90;;
67130;SDS011;54051;53.464;49.532;2023-07-13T00:22:11;5.15;;;1.80;;
67130;SDS011;54051;53.464;49.532;2023-07-13T00:24:37;3.65;;;1.83;;
67130;SDS011;54051;53.464;49.532;2023-07-13T00:27:08;4.05;;;1.80;;
67130;SDS011;54051;53.464;49.532;2023-07-13T00:29:35;5.30;;;1.90;;
67130;SDS011;54051;53.464;49.532;2023-07-13T00:32:05;5.82;;;1.90;;
67130;SDS011;54051;53.464;49.532;2023-07-13T00:34:32;4.00;;;1.85;;
67130;SDS011;54051;53.464;49.532;2023-07-13T00:36:59;4.80;;;2.00;;
67130;SDS011;54051;53.464;49.532;2023-07-13T00:39:25;5.40;;;1.80;;
67130;SDS011;54051;53.464;49.532;2023-07-13T00:41:51;5.82;;;2.20;;
67130;SDS011;54051;53.464;49.532;2023-07-13T00:44:18;4.28;;;2.20;;
67130;SDS011;54051;53.464;49.532;2023-07-13T00:46:46;4.32;;;2.05;;
67130;SDS011;54051;53.464;49.532;2023-07-13T00:49:13;4.97;;;2.22;;
67130;SDS011;54051;53.464;49.532;2023-07-13T00:51:52;4.93;;;2.10;;
67130;SDS011;54051;53.464;49.532;2023-07-13T00:54:25;5.78;;;2.00;;
67130;SDS011;54051;53.464;49.532;2023-07-13T00:56:56;3.78;;;1.60;;
67130;SDS011;54051;53.464;49.532;2023-07-13T00:59:24;4.05;;;1.70;;
67130;SDS011;54051;53.464;49.532;2023-07-13T01:01:51;4.25;;;1.60;;
67130;SDS011;54051;53.464;49.532;2023-07-13T01:04:18;3.83;;;1.50;;
67130;SDS011;54051;53.464;49.532;2023-07-13T01:06:45;4.20;;;1.80;;
67130;SDS011;54051;53.464;49.532;2023-07-13T01:09:13;4.00;;;1.70;;
67130;SDS011;54051;53.464;49.532;2023-07-13T01:11:40;3.72;;;1.63;;
67130;SDS011;54051;53.464;49.532;2023-07-13T01:14:07;4.47;;;1.88;;
67130;SDS011;54051;53.464;49.532;2023-07-13T01:16:34;3.90;;;1.90;;
67130;SDS011;54051;53.464;49.532;2023-07-13T01:19:03;4.95;;;1.65;;
67130;SDS011;54051;53.464;49.532;2023-07-13T01:21:41;4.57;;;1.90;;
67130;SDS011;54051;53.464;49.532;2023-07-13T01:24:09;4.05;;;1.60;;
67130;SDS011;54051;53.464;49.532;2023-07-13T01:29:01;4.50;;;1.60;;
67130;SDS011;54051;53.464;49.532;2023-07-13T01:33:54;4.30;;;1.50;;
67130;SDS011;54051;53.464;49.532;2023-07-13T01:36:20;4.82;;;1.58;;
67130;SDS011;54051;53.464;49.532;2023-07-13T01:38:48;4.05;;;1.45;;
67130;SDS011;54051;53.464;49.532;2023-07-13T01:41:14;3.33;;;1.40;;
67130;SDS011;54051;53.464;49.532;2023-07-13T01:43:41;4.30;;;1.80;;
67130;SDS011;54051;53.464;49.532;2023-07-13T01:46:07;5.20;;;1.60;;
67130;SDS011;54051;53.464;49.532;2023-07-13T01:48:33;3.80;;;1.60;;
67130;SDS011;54051;53.464;49.532;2023-07-13T01:51:00;4.60;;;1.60;;
67130;SDS011;54051;53.464;49.532;2023-07-13T01:53:26;4.13;;;1.77;;
67130;SDS011;54051;53.464;49.532;2023-07-13T01:55:52;5.30;;;1.80;;
67130;SDS011;54051;53.464;49.532;2023-07-13T01:58:18;3.60;;;1.70;;
67130;SDS011;54051;53.464;49.532;2023-07-13T02:00:47;4.03;;;1.83;;
67130;SDS011;54051;53.464;49.532;2023-07-13T02:03:14;5.05;;;1.77;;
67130;SDS011;54051;53.464;49.532;2023-07-13T02:05:44;4.20;;;2.00;;
67130;SDS011;54051;53.464;49.532;2023-07-13T02:08:10;5.35;;;1.80;;
67130;SDS011;54051;53.464;49.532;2023-07-13T02:10:37;4.30;;;1.90;;
67130;SDS011;54051;53.464;49.532;2023-07-13T02:13:05;4.95;;;1.80;;
67130;SDS011;54051;53.464;49.532;2023-07-13T02:15:32;4.47;;;2.20;;
67130;SDS011;54051;53.464;49.532;2023-07-13T02:17:58;5.78;;;2.50;;
67130;SDS011;54051;53.464;49.532;2023-07-13T02:20:25;9.73;;;4.37;;
67130;SDS011;54051;53.464;49.532;2023-07-13T02:22:52;10.70;;;3.97;;
67130;SDS011;54051;53.464;49.532;2023-07-13T02:28:11;7.13;;;2.60;;
67130;SDS011;54051;53.464;49.532;2023-07-13T02:30:40;6.82;;;2.70;;
67130;SDS011;54051;53.464;49.532;2023-07-13T02:33:07;4.82;;;1.98;;
67130;SDS011;54051;53.464;49.532;2023-07-13T02:35:33;4.23;;;1.80;;
67130;SDS011;54051;53.464;49.532;2023-07-13T02:37:59;4.05;;;1.55;;
67130;SDS011;54051;53.464;49.532;2023-07-13T02:40:25;4.53;;;2.08;;
67130;SDS011;54051;53.464;49.532;2023-07-13T02:42:52;5.10;;;2.00;;
67130;SDS011;54051;53.464;49.532;2023-07-13T02:45:18;4.07;;;1.97;;
67130;SDS011;54051;53.464;49.532;2023-07-13T02:47:44;5.88;;;2.22;;
67130;SDS011;54051;53.464;49.532;2023-07-13T02:50:10;5.50;;;2.50;;
67130;SDS011;54051;53.464;49.532;2023-07-13T02:52:36;5.85;;;2.35;;
67130;SDS011;54051;53.464;49.532;2023-07-13T02:55:03;6.53;;;2.73;;
67130;SDS011;54051;53.464;49.532;2023-07-13T02:57:29;5.22;;;2.30;;
67130;SDS011;54051;53.464;49.532;2023-07-13T02:59:58;5.18;;;2.47;;
67130;SDS011;54051;53.464;49.532;2023-07-13T03:02:25;4.40;;;2.00;;
67130;SDS011;54051;53.464;49.532;2023-07-13T03:04:54;5.07;;;2.28;;
67130;SDS011;54051;53.464;49.532;2023-07-13T03:07:21;3.95;;;2.00;;
67130;SDS011;54051;53.464;49.532;2023-07-13T03:09:48;4.97;;;2.13;;
67130;SDS011;54051;53.464;49.532;2023-07-13T03:12:14;4.38;;;1.90;;
67130;SDS011;54051;53.464;49.532;2023-07-13T03:14:40;4.07;;;1.83;;
67130;SDS011;54051;53.464;49.532;2023-07-13T03:17:06;4.60;;;1.90;;
67130;SDS011;54051;53.464;49.532;2023-07-13T03:19:33;4.27;;;1.90;;
67130;SDS011;54051;53.464;49.532;2023-07-13T03:21:59;4.50;;;2.03;;
67130;SDS011;54051;53.464;49.532;2023-07-13T03:24:25;4.80;;;2.37;;
67130;SDS011;54051;53.464;49.532;2023-07-13T03:26:51;4.57;;;2.00;;
67130;SDS011;54051;53.464;49.532;2023-07-13T03:29:33;4.50;;;2.00;;
67130;SDS011;54051;53.464;49.532;2023-07-13T03:31:59;4.13;;;1.80;;
67130;SDS011;54051;53.464;49.532;2023-07-13T03:34:25;4.07;;;1.80;;
67130;SDS011;54051;53.464;49.532;2023-07-13T03:36:53;4.25;;;1.83;;
67130;SDS011;54051;53.464;49.532;2023-07-13T03:39:20;4.90;;;2.08;;
67130;SDS011;54051;53.464;49.532;2023-07-13T03:41:47;4.93;;;1.98;;
67130;SDS011;54051;53.464;49.532;2023-07-13T03:44:18;4.28;;;1.90;;
67130;SDS011;54051;53.464;49.532;2023-07-13T03:46:45;5.00;;;2.08;;
67130;SDS011;54051;53.464;49.532;2023-07-13T03:49:11;5.18;;;2.10;;
67130;SDS011;54051;53.464;49.532;2023-07-13T03:51:37;5.05;;;1.80;;
67130;SDS011;54051;53.464;49.532;2023-07-13T03:54:04;4.10;;;1.70;;
67130;SDS011;54051;53.464;49.532;2023-07-13T03:56:30;3.78;;;1.70;;
67130;SDS011;54051;53.464;49.532;2023-07-13T03:58:58;3.70;;;1.67;;
67130;SDS011;54051;53.464;49.532;2023-07-13T04:01:25;3.85;;;1.80;;
67130;SDS011;54051;53.464;49.532;2023-07-13T04:03:52;5.25;;;1.98;;
67130;SDS011;54051;53.464;49.532;2023-07-13T04:06:19;4.13;;;1.90;;
67130;SDS011;54051;53.464;49.532;2023-07-13T04:08:52;5.38;;;2.17;;
67130;SDS011;54051;53.464;49.532;2023-07-13T04:11:20;3.97;;;1.63;;
67130;SDS011;54051;53.464;49.532;2023-07-13T04:13:48;4.43;;;1.90;;
67130;SDS011;54051;53.464;49.532;2023-07-13T04:16:15;6.47;;;2.03;;
67130;SDS011;54051;53.464;49.532;2023-07-13T04:18:43;5.20;;;2.53;;
67130;SDS011;54051;53.464;49.532;2023-07-13T04:21:10;7.53;;;4.15;;
67130;SDS011;54051;53.464;49.532;2023-07-13T04:23:36;8.23;;;4.10;;
67130;SDS011;54051;53.464;49.532;2023-07-13T04:26:03;5.35;;;2.50;;
67130;SDS011;54051;53.464;49.532;2023-07-13T04:28:30;3.70;;;1.75;;
67130;SDS011;54051;53.464;49.532;2023-07-13T04:30:56;4.28;;;1.67;;
67130;SDS011;54051;53.464;49.532;2023-07-13T04:33:23;4.30;;;1.83;;
67130;SDS011;54051;53.464;49.532;2023-07-13T04:35:53;3.70;;;1.80;;
67130;SDS011;54051;53.464;49.532;2023-07-13T04:38:23;3.80;;;1.70;;
67130;SDS011;54051;53.464;49.532;2023-07-13T04:40:50;4.32;;;1.90;;
67130;SDS011;54051;53.464;49.532;2023-07-13T04:43:17;3.67;;;1.67;;
67130;SDS011;54051;53.464;49.532;2023-07-13T04:45:44;4.38;;;2.03;;
67130;SDS011;54051;53.464;49.532;2023-07-13T04:48:11;3.97;;;1.77;;
67130;SDS011;54051;53.464;49.532;2023-07-13T04:50:37;3.80;;;1.80;;
67130;SDS011;54051;53.464;49.532;2023-07-13T04:53:04;4.50;;;2.20;;
67130;SDS011;54051;53.464;49.532;2023-07-13T04:55:30;4.22;;;2.05;;
67130;SDS011;54051;53.464;49.532;2023-07-13T04:57:57;4.43;;;1.90;;
67130;SDS011;54051;53.464;49.532;2023-07-13T05:00:26;3.75;;;1.83;;
67130;SDS011;54051;53.464;49.532;2023-07-13T05:02:54;3.75;;;1.83;;
67130;SDS011;54051;53.464;49.532;2023-07-13T05:05:24;4.13;;;1.75;;
67130;SDS011;54051;53.464;49.532;2023-07-13T05:07:52;4.57;;;2.13;;
67130;SDS011;54051;53.464;49.532;2023-07-13T05:10:19;6.38;;;2.50;;
67130;SDS011;54051;53.464;49.532;2023-07-13T05:12:46;4.05;;;1.95;;
67130;SDS011;54051;53.464;49.532;2023-07-13T05:15:12;5.30;;;2.20;;
67130;SDS011;54051;53.464;49.532;2023-07-13T05:17:39;4.15;;;2.00;;
67130;SDS011;54051;53.464;49.532;2023-07-13T05:20:06;4.25;;;2.00;;
67130;SDS011;54051;53.464;49.532;2023-07-13T05:22:34;5.00;;;2.20;;
67130;SDS011;54051;53.464;49.532;2023-07-13T05:25:01;5.18;;;2.17;;
67130;SDS011;54051;53.464;49.532;2023-07-13T05:27:30;4.47;;;2.30;;
67130;SDS011;54051;53.464;49.532;2023-07-13T05:29:56;4.22;;;1.80;;
67130;SDS011;54051;53.464;49.532;2023-07-13T05:32:23;4.53;;;2.08;;
67130;SDS011;54051;53.464;49.532;2023-07-13T05:34:49;4.63;;;2.30;;
67130;SDS011;54051;53.464;49.532;2023-07-13T05:37:15;4.03;;;2.00;;
67130;SDS011;54051;53.464;49.532;2023-07-13T05:39:42;4.90;;;2.10;;
67130;SDS011;54051;53.464;49.532;2023-07-13T05:42:08;4.07;;;2.08;;
67130;SDS011;54051;53.464;49.532;2023-07-13T05:44:34;4.10;;;1.95;;
67130;SDS011;54051;53.464;49.532;2023-07-13T05:47:01;4.93;;;2.20;;
67130;SDS011;54051;53.464;49.532;2023-07-13T05:49:28;4.28;;;2.25;;
67130;SDS011;54051;53.464;49.532;2023-07-13T05:51:56;4.13;;;2.20;;
67130;SDS011;54051;53.464;49.532;2023-07-13T05:54:23;4.65;;;2.30;;
67130;SDS011;54051;53.464;49.532;2023-07-13T05:56:49;4.65;;;2.20;;
67130;SDS011;54051;53.464;49.532;2023-07-13T05:59:15;4.85;;;2.20;;
67130;SDS011;54051;53.464;49.532;2023-07-13T06:01:43;4.90;;;2.35;;
67130;SDS011;54051;53.464;49.532;2023-07-13T06:04:11;3.92;;;2.00;;
67130;SDS011;54051;53.464;49.532;2023-07-13T06:06:37;5.07;;;2.30;;
67130;SDS011;54051;53.464;49.532;2023-07-13T06:09:03;5.30;;;2.33;;
67130;SDS011;54051;53.464;49.532;2023-07-13T06:11:30;9.95;;;2.38;;
67130;SDS011;54051;53.464;49.532;2023-07-13T06:13:56;4.95;;;2.35;;
67130;SDS011;54051;53.464;49.532;2023-07-13T06:16:23;4.35;;;2.38;;
67130;SDS011;54051;53.464;49.532;2023-07-13T06:18:49;4.22;;;2.08;;
67130;SDS011;54051;53.464;49.532;2023-07-13T06:21:17;4.20;;;2.30;;
67130;SDS011;54051;53.464;49.532;2023-07-13T06:23:45;5.30;;;2.40;;
67130;SDS011;54051;53.464;49.532;2023-07-13T06:26:16;5.25;;;2.65;;
67130;SDS011;54051;53.464;49.532;2023-07-13T06:28:43;5.60;;;2.53;;
67130;SDS011;54051;53.464;49.532;2023-07-13T06:31:10;6.82;;;2.20;;
67130;SDS011;54051;53.464;49.532;2023-07-13T06:33:38;5.03;;;2.53;;
67130;SDS011;54051;53.464;49.532;2023-07-13T06:36:05;4.95;;;2.28;;
67130;SDS011;54051;53.464;49.532;2023-07-13T06:38:33;5.70;;;2.53;;
67130;SDS011;54051;53.464;49.532;2023-07-13T06:43:26;4.28;;;2.20;;
67130;SDS011;54051;53.464;49.532;2023-07-13T06:45:54;3.88;;;2.10;;
67130;SDS011;54051;53.464;49.532;2023-07-13T06:48:21;4.30;;;2.05;;
67130;SDS011;54051;53.464;49.532;2023-07-13T06:50:48;5.47;;;2.10;;
67130;SDS011;54051;53.464;49.532;2023-07-13T06:53:15;4.75;;;2.38;;
67130;SDS011;54051;53.464;49.532;2023-07-13T06:55:43;4.50;;;2.40;;
67130;SDS011;54051;53.464;49.532;2023-07-13T06:58:10;4.57;;;2.30;;
67130;SDS011;54051;53.464;49.532;2023-07-13T07:03:05;4.28;;;2.22;;
67130;SDS011;54051;53.464;49.532;2023-07-13T07:05:32;3.97;;;2.10;;
67130;SDS011;54051;53.464;49.532;2023-07-13T07:07:58;4.15;;;2.05;;
67130;SDS011;54051;53.464;49.532;2023-07-13T07:12:51;6.18;;;2.80;;
67130;SDS011;54051;53.464;49.532;2023-07-13T07:15:17;3.85;;;2.10;;
67130;SDS011;54051;53.464;49.532;2023-07-13T07:17:44;5.15;;;2.40;;
67130;SDS011;54051;53.464;49.532;2023-07-13T07:20:10;5.35;;;2.65;;
67130;SDS011;54051;53.464;49.532;2023-07-13T07:22:37;4.63;;;2.45;;
67130;SDS011;54051;53.464;49.532;2023-07-13T07:27:30;4.65;;;2.22;;
67130;SDS011;54051;53.464;49.532;2023-07-13T07:29:56;4.28;;;2.20;;
67130;SDS011;54051;53.464;49.532;2023-07-13T07:32:25;4.13;;;2.10;;
67130;SDS011;54051;53.464;49.532;2023-07-13T07:34:52;5.07;;;2.13;;
67130;SDS011;54051;53.464;49.532;2023-07-13T07:37:18;4.38;;;2.22;;
67130;SDS011;54051;53.464;49.532;2023-07-13T07:44:39;4.97;;;2.28;;
67130;SDS011;54051;53.464;49.532;2023-07-13T07:47:06;4.60;;;2.35;;
67130;SDS011;54051;53.464;49.532;2023-07-13T07:49:33;4.75;;;2.22;;
67130;SDS011;54051;53.464;49.532;2023-07-13T07:52:00;4.72;;;2.30;;
67130;SDS011;54051;53.464;49.532;2023-07-13T07:54:26;5.07;;;2.38;;
67130;SDS011;54051;53.464;49.532;2023-07-13T07:56:53;3.95;;;2.20;;
67130;SDS011;54051;53.464;49.532;2023-07-13T07:59:19;4.28;;;2.10;;
67130;SDS011;54051;53.464;49.532;2023-07-13T08:01:46;4.97;;;2.47;;
67130;SDS011;54051;53.464;49.532;2023-07-13T08:04:13;4.35;;;2.25;;
67130;SDS011;54051;53.464;49.532;2023-07-13T08:06:39;3.92;;;2.20;;
67130;SDS011;54051;53.464;49.532;2023-07-13T08:09:06;4.10;;;2.30;;
67130;SDS011;54051;53.464;49.532;2023-07-13T08:11:33;4.90;;;2.33;;
67130;SDS011;54051;53.464;49.532;2023-07-13T08:14:01;3.60;;;2.08;;
67130;SDS011;54051;53.464;49.532;2023-07-13T08:16:27;4.55;;;2.05;;
67130;SDS011;54051;53.464;49.532;2023-07-13T08:18:53;3.83;;;2.00;;
67130;SDS011;54051;53.464;49.532;2023-07-13T08:21:19;3.80;;;2.00;;
67130;SDS011;54051;53.464;49.532;2023-07-13T08:23:46;4.82;;;2.13;;
67130;SDS011;54051;53.464;49.532;2023-07-13T08:26:14;5.63;;;2.13;;
67130;SDS011;54051;53.464;49.532;2023-07-13T08:28:41;3.42;;;1.70;;
67130;SDS011;54051;53.464;49.532;2023-07-13T08:31:07;3.85;;;1.70;;
67130;SDS011;54051;53.464;49.532;2023-07-13T08:36:01;3.70;;;1.58;;
67130;SDS011;54051;53.464;49.532;2023-07-13T08:38:27;3.78;;;1.70;;
67130;SDS011;54051;53.464;49.532;2023-07-13T08:40:55;4.10;;;2.10;;
67130;SDS011;54051;53.464;49.532;2023-07-13T08:43:26;3.90;;;1.90;;
67130;SDS011;54051;53.464;49.532;2023-07-13T08:48:32;3.88;;;1.77;;
67130;SDS011;54051;53.464;49.532;2023-07-13T08:53:54;4.20;;;1.80;;
67130;SDS011;54051;53.464;49.532;2023-07-13T08:56:27;3.50;;;1.80;;
67130;SDS011;54051;53.464;49.532;2023-07-13T08:58:56;5.15;;;1.70;;
67130;SDS011;54051;53.464;49.532;2023-07-13T09:04:17;3.50;;;1.80;;
67130;SDS011;54051;53.464;49.532;2023-07-13T09:09:24;3.65;;;1.70;;
67130;SDS011;54051;53.464;49.532;2023-07-13T09:14:49;4.00;;;1.90;;
67130;SDS011;54051;53.464;49.532;2023-07-13T09:17:20;4.68;;;1.85;;
67130;SDS011;54051;53.464;49.532;2023-07-13T09:19:55;3.70;;;1.88;;
67130;SDS011;54051;53.464;49.532;2023-07-13T09:22:26;5.05;;;2.00;;
67130;SDS011;54051;53.464;49.532;2023-07-13T09:25:10;4.05;;;1.80;;
67130;SDS011;54051;53.464;49.532;2023-07-13T09:27:40;3.75;;;2.00;;
67130;SDS011;54051;53.464;49.532;2023-07-13T09:32:45;4.47;;;1.90;;
67130;SDS011;54051;53.464;49.532;2023-07-13T09:35:16;6.65;;;2.30;;
67130;SDS011;54051;53.464;49.532;2023-07-13T09:37:46;5.25;;;2.05;;
67130;SDS011;54051;53.464;49.532;2023-07-13T09:43:20;4.32;;;2.10;;
67130;SDS011;54051;53.464;49.532;2023-07-13T09:45:47;4.18;;;1.92;;
67130;SDS011;54051;53.464;49.532;2023-07-13T09:48:14;3.63;;;1.90;;
67130;SDS011;54051;53.464;49.532;2023-07-13T09:50:42;3.92;;;1.98;;
67130;SDS011;54051;53.464;49.532;2023-07-13T09:53:17;3.90;;;2.10;;
67130;SDS011;54051;53.464;49.532;2023-07-13T09:55:45;4.78;;;2.53;;
67130;SDS011;54051;53.464;49.532;2023-07-13T09:58:14;3.80;;;2.10;;
67130;SDS011;54051;53.464;49.532;2023-07-13T10:00:43;3.67;;;1.90;;
67130;SDS011;54051;53.464;49.532;2023-07-13T10:03:26;3.80;;;1.90;;
67130;SDS011;54051;53.464;49.532;2023-07-13T10:06:09;4.30;;;2.30;;
67130;SDS011;54051;53.464;49.532;2023-07-13T10:08:38;4.10;;;2.00;;
67130;SDS011;54051;53.464;49.532;2023-07-13T10:11:15;4.10;;;2.20;;
67130;SDS011;54051;53.464;49.532;2023-07-13T10:13:55;3.90;;;1.90;;
67130;SDS011;54051;53.464;49.532;2023-07-13T10:16:25;3.63;;;1.90;;
67130;SDS011;54051;53.464;49.532;2023-07-13T10:18:59;4.68;;;2.17;;
67130;SDS011;54051;53.464;49.532;2023-07-13T10:21:35;3.75;;;2.00;;
67130;SDS011;54051;53.464;49.532;2023-07-13T10:24:18;3.90;;;2.15;;
67130;SDS011;54051;53.464;49.532;2023-07-13T10:26:52;4.30;;;2.00;;
67130;SDS011;54051;53.464;49.532;2023-07-13T10:29:25;8.02;;;2.20;;
67130;SDS011;54051;53.464;49.532;2023-07-13T10:31:53;4.38;;;2.10;;
67130;SDS011;54051;53.464;49.532;2023-07-13T10:34:19;5.35;;;2.08;;
67130;SDS011;54051;53.464;49.532;2023-07-13T10:36:47;4.18;;;1.98;;
67130;SDS011;54051;53.464;49.532;2023-07-13T10:39:19;5.35;;;2.20;;
67130;SDS011;54051;53.464;49.532;2023-07-13T10:41:49;4.80;;;2.20;;
67130;SDS011;54051;53.464;49.532;2023-07-13T10:44:29;5.35;;;2.20;;
67130;SDS011;54051;53.464;49.532;2023-07-13T10:46:58;4.30;;;2.00;;
67130;SDS011;54051;53.464;49.532;2023-07-13T10:49:27;4.60;;;2.20;;
67130;SDS011;54051;53.464;49.532;2023-07-13T10:51:55;3.53;;;1.70;;
67130;SDS011;54051;53.464;49.532;2023-07-13T10:54:26;4.53;;;2.00;;
67130;SDS011;54051;53.464;49.532;2023-07-13T10:57:18;5.03;;;2.03;;
67130;SDS011;54051;53.464;49.532;2023-07-13T10:59:48;3.80;;;1.95;;
67130;SDS011;54051;53.464;49.532;2023-07-13T11:02:34;4.30;;;1.85;;
67130;SDS011;54051;53.464;49.532;2023-07-13T11:07:54;3.30;;;1.60;;
67130;SDS011;54051;53.464;49.532;2023-07-13T11:10:46;3.72;;;1.52;;
67130;SDS011;54051;53.464;49.532;2023-07-13T11:13:36;4.80;;;1.90;;
67130;SDS011;54051;53.464;49.532;2023-07-13T11:16:13;4.68;;;1.70;;
67130;SDS011;54051;53.464;49.532;2023-07-13T11:19:24;3.70;;;1.70;;
67130;SDS011;54051;53.464;49.532;2023-07-13T11:22:09;4.05;;;1.83;;
67130;SDS011;54051;53.464;49.532;2023-07-13T11:30:07;4.50;;;1.95;;
67130;SDS011;54051;53.464;49.532;2023-07-13T11:32:34;6.40;;;2.13;;
67130;SDS011;54051;53.464;49.532;2023-07-13T11:37:27;4.78;;;1.65;;
67130;SDS011;54051;53.464;49.532;2023-07-13T11:39:55;4.30;;;1.90;;
67130;SDS011;54051;53.464;49.532;2023-07-13T11:42:21;5.53;;;2.05;;
67130;SDS011;54051;53.464;49.532;2023-07-13T11:44:49;4.03;;;2.00;;
67130;SDS011;54051;53.464;49.532;2023-07-13T11:47:17;6.15;;;2.10;;
67130;SDS011;54051;53.464;49.532;2023-07-13T11:49:49;5.28;;;2.40;;
67130;SDS011;54051;53.464;49.532;2023-07-13T11:52:19;5.03;;;2.60;;
67130;SDS011;54051;53.464;49.532;2023-07-13T11:54:52;5.22;;;2.45;;
67130;SDS011;54051;53.464;49.532;2023-07-13T11:57:32;4.63;;;2.20;;
67130;SDS011;54051;53.464;49.532;2023-07-13T12:00:11;4.80;;;2.10;;
67130;SDS011;54051;53.464;49.532;2023-07-13T12:02:42;5.05;;;2.17;;
67130;SDS011;54051;53.464;49.532;2023-07-13T12:05:11;5.03;;;1.98;;
67130;SDS011;54051;53.464;49.532;2023-07-13T12:07:40;3.72;;;1.85;;
67130;SDS011;54051;53.464;49.532;2023-07-13T12:13:00;5.25;;;2.22;;
67130;SDS011;54051;53.464;49.532;2023-07-13T12:15:42;5.40;;;2.60;;
67130;SDS011;54051;53.464;49.532;2023-07-13T12:18:29;6.07;;;2.63;;
67130;SDS011;54051;53.464;49.532;2023-07-13T12:20:57;7.22;;;2.70;;
67130;SDS011;54051;53.464;49.532;2023-07-13T12:23:29;5.07;;;2.30;;
67130;SDS011;54051;53.464;49.532;2023-07-13T12:26:04;5.72;;;2.10;;
67130;SDS011;54051;53.464;49.532;2023-07-13T12:28:34;4.97;;;2.00;;
67130;SDS011;54051;53.464;49.532;2023-07-13T12:31:06;4.78;;;2.10;;
67130;SDS011;54051;53.464;49.532;2023-07-13T12:33:45;5.75;;;2.40;;
67130;SDS011;54051;53.464;49.532;2023-07-13T12:36:12;5.63;;;2.22;;
67130;SDS011;54051;53.464;49.532;2023-07-13T12:38:39;5.30;;;2.25;;
67130;SDS011;54051;53.464;49.532;2023-07-13T12:41:06;5.47;;;2.20;;
67130;SDS011;54051;53.464;49.532;2023-07-13T12:43:36;6.38;;;2.20;;
67130;SDS011;54051;53.464;49.532;2023-07-13T12:46:04;4.70;;;2.10;;
67130;SDS011;54051;53.464;49.532;2023-07-13T12:48:41;5.10;;;1.60;;
67130;SDS011;54051;53.464;49.532;2023-07-13T12:51:10;3.80;;;1.75;;
67130;SDS011;54051;53.464;49.532;2023-07-13T12:53:42;3.80;;;1.83;;
67130;SDS011;54051;53.464;49.532;2023-07-13T12:59:33;3.90;;;1.67;;
67130;SDS011;54051;53.464;49.532;2023-07-13T13:02:02;6.72;;;1.83;;
67130;SDS011;54051;53.464;49.532;2023-07-13T13:04:42;4.10;;;1.80;;
67130;SDS011;54051;53.464;49.532;2023-07-13T13:07:09;4.18;;;1.88;;
67130;SDS011;54051;53.464;49.532;2023-07-13T13:09:36;4.10;;;1.70;;
67130;SDS011;54051;53.464;49.532;2023-07-13T13:12:02;4.25;;;2.10;;
67130;SDS011;54051;53.464;49.532;2023-07-13T13:14:28;4.45;;;2.20;;
67130;SDS011;54051;53.464;49.532;2023-07-13T13:16:55;5.60;;;2.50;;
67130;SDS011;54051;53.464;49.532;2023-07-13T13:19:23;4.10;;;1.98;;
67130;SDS011;54051;53.464;49.532;2023-07-13T13:21:52;4.50;;;2.10;;
67130;SDS011;54051;53.464;49.532;2023-07-13T13:24:21;4.72;;;2.45;;
67130;SDS011;54051;53.464;49.532;2023-07-13T13:26:49;4.82;;;2.15;;
67130;SDS011;54051;53.464;49.532;2023-07-13T13:29:19;4.38;;;2.10;;
67130;SDS011;54051;53.464;49.532;2023-07-13T13:31:47;4.85;;;2.25;;
67130;SDS011;54051;53.464;49.532;2023-07-13T13:34:14;4.68;;;1.90;;
67130;SDS011;54051;53.464;49.532;2023-07-13T13:36:43;4.32;;;1.70;;
67130;SDS011;54051;53.464;49.532;2023-07-13T13:41:42;4.82;;;1.75;;
67130;SDS011;54051;53.464;49.532;2023-07-13T13:44:09;4.15;;;1.80;;
67130;SDS011;54051;53.464;49.532;2023-07-13T13:46:51;3.83;;;1.65;;
67130;SDS011;54051;53.464;49.532;2023-07-13T13:49:24;4.75;;;1.90;;
67130;SDS011;54051;53.464;49.532;2023-07-13T13:54:43;4.55;;;1.80;;
67130;SDS011;54051;53.464;49.532;2023-07-13T13:57:10;3.97;;;1.42;;
67130;SDS011;54051;53.464;49.532;2023-07-13T13:59:38;3.45;;;1.60;;
67130;SDS011;54051;53.464;49.532;2023-07-13T14:02:21;3.85;;;1.40;;
67130;SDS011;54051;53.464;49.532;2023-07-13T14:04:59;4.05;;;1.50;;
67130;SDS011;54051;53.464;49.532;2023-07-13T14:07:28;3.08;;;1.40;;
67130;SDS011;54051;53.464;49.532;2023-07-13T14:09:56;3.85;;;1.60;;
67130;SDS011;54051;53.464;49.532;2023-07-13T14:12:32;3.80;;;1.48;;
67130;SDS011;54051;53.464;49.532;2023-07-13T14:15:01;4.15;;;1.40;;
67130;SDS011;54051;53.464;49.532;2023-07-13T14:17:28;3.30;;;1.40;;
67130;SDS011;54051;53.464;49.532;2023-07-13T14:19:54;3.45;;;1.50;;
67130;SDS011;54051;53.464;49.532;2023-07-13T14:22:24;3.75;;;1.40;;
67130;SDS011;54051;53.464;49.532;2023-07-13T14:24:54;3.30;;;1.40;;
67130;SDS011;54051;53.464;49.532;2023-07-13T14:27:21;3.85;;;1.20;;
67130;SDS011;54051;53.464;49.532;2023-07-13T14:29:49;3.20;;;1.20;;
67130;SDS011;54051;53.464;49.532;2023-07-13T14:32:16;3.13;;;1.20;;
67130;SDS011;54051;53.464;49.532;2023-07-13T14:34:42;3.80;;;1.35;;
67130;SDS011;54051;53.464;49.532;2023-07-13T14:37:14;3.55;;;1.30;;
67130;SDS011;54051;53.464;49.532;2023-07-13T14:39:43;3.53;;;1.30;;
67130;SDS011;54051;53.464;49.532;2023-07-13T14:42:18;3.00;;;1.30;;
67130;SDS011;54051;53.464;49.532;2023-07-13T14:44:50;3.08;;;1.30;;
67130;SDS011;54051;53.464;49.532;2023-07-13T14:47:17;3.20;;;1.30;;
67130;SDS011;54051;53.464;49.532;2023-07-13T14:49:50;4.20;;;1.50;;
67130;SDS011;54051;53.464;49.532;2023-07-13T14:52:20;3.47;;;1.25;;
67130;SDS011;54051;53.464;49.532;2023-07-13T14:54:51;3.53;;;1.40;;
67130;SDS011;54051;53.464;49.532;2023-07-13T14:57:30;4.13;;;1.35;;
67130;SDS011;54051;53.464;49.532;2023-07-13T15:00:26;3.23;;;1.27;;
67130;SDS011;54051;53.464;49.532;2023-07-13T15:02:53;3.67;;;1.40;;
67130;SDS011;54051;53.464;49.532;2023-07-13T15:05:25;4.07;;;1.50;;
67130;SDS011;54051;53.464;49.532;2023-07-13T15:07:57;4.82;;;1.40;;
67130;SDS011;54051;53.464;49.532;2023-07-13T15:10:28;3.42;;;1.55;;
67130;SDS011;54051;53.464;49.532;2023-07-13T15:13:00;3.22;;;1.35;;
67130;SDS011;54051;53.464;49.532;2023-07-13T15:15:38;4.18;;;1.40;;
67130;SDS011;54051;53.464;49.532;2023-07-13T15:18:12;3.83;;;1.55;;
67130;SDS011;54051;53.464;49.532;2023-07-13T15:20:43;4.13;;;1.38;;
67130;SDS011;54051;53.464;49.532;2023-07-13T15:23:11;4.03;;;1.40;;
67130;SDS011;54051;53.464;49.532;2023-07-13T15:25:42;4.20;;;1.70;;
67130;SDS011;54051;53.464;49.532;2023-07-13T15:28:14;4.10;;;1.83;;
67130;SDS011;54051;53.464;49.532;2023-07-13T15:30:45;3.72;;;1.60;;
67130;SDS011;54051;53.464;49.532;2023-07-13T15:33:20;3.30;;;1.45;;
67130;SDS011;54051;53.464;49.532;2023-07-13T15:35:49;3.35;;;1.50;;
67130;SDS011;54051;53.464;49.532;2023-07-13T15:38:23;3.88;;;1.55;;
67130;SDS011;54051;53.464;49.532;2023-07-13T15:40:57;3.80;;;1.48;;
67130;SDS011;54051;53.464;49.532;2023-07-13T15:43:23;3.35;;;1.38;;
67130;SDS011;54051;53.464;49.532;2023-07-13T15:45:52;3.50;;;1.42;;
67130;SDS011;54051;53.464;49.532;2023-07-13T15:48:19;3.60;;;1.50;;
67130;SDS011;54051;53.464;49.532;2023-07-13T15:50:47;4.50;;;1.63;;
67130;SDS011;54051;53.464;49.532;2023-07-13T15:53:25;5.20;;;1.88;;